createdAt,value
2022-11-22T00:01:12.572Z,130.97
2022-11-22T00:06:15.933Z,130.87
2022-11-22T00:11:18.989Z,132.40
2022-11-22T00:16:21.947Z,128.03
2022-11-22T00:21:25.011Z,122.67
2022-11-22T00:26:28.199Z,130.13
2022-11-22T00:31:31.595Z,133.17
2022-11-22T00:36:34.786Z,127.37
2022-11-22T00:41:37.923Z,126.70
2022-11-22T00:46:41.157Z,128.33
2022-11-22T00:51:44.169Z,138.80
2022-11-22T00:56:47.610Z,143.30
2022-11-22T01:01:50.466Z,139.33
2022-11-22T01:06:53.751Z,135.10
2022-11-22T01:11:56.553Z,129.83
2022-11-22T01:16:59.361Z,131.20
2022-11-22T01:22:02.450Z,136.73
2022-11-22T01:27:05.493Z,134.17
2022-11-22T01:32:08.534Z,128.10
2022-11-22T01:37:11.509Z,137.47
2022-11-22T01:42:14.637Z,138.20
2022-11-22T01:47:24.008Z,138.30
2022-11-22T01:52:31.774Z,129.53
2022-11-22T01:57:36.574Z,140.67
2022-11-22T02:02:39.592Z,136.47
2022-11-22T02:07:51.095Z,147.67
2022-11-22T02:12:55.151Z,145.93
2022-11-22T02:17:58.340Z,137.03
2022-11-22T02:23:09.726Z,137.77
2022-11-22T02:28:13.944Z,132.37
2022-11-22T02:33:17.160Z,146.17
2022-11-22T02:38:23.191Z,138.70
2022-11-22T02:43:38.698Z,135.33
2022-11-22T02:48:42.822Z,158.27
2022-11-22T02:53:50.663Z,140.80
2022-11-22T02:58:53.898Z,146.40
2022-11-22T03:03:56.948Z,143.37
2022-11-22T03:09:00.086Z,150.20
2022-11-22T03:14:03.129Z,155.00
2022-11-22T03:19:05.966Z,149.90
2022-11-22T03:24:09.094Z,152.20
2022-11-22T03:29:12.225Z,142.13
2022-11-22T03:34:15.406Z,146.00
2022-11-22T03:39:18.368Z,141.30
2022-11-22T03:44:21.208Z,143.30
2022-11-22T03:49:24.190Z,144.37
2022-11-22T03:54:27.222Z,136.13
2022-11-22T03:59:30.485Z,140.57
2022-11-22T04:04:33.705Z,134.97
2022-11-22T04:09:36.722Z,139.97
2022-11-22T04:14:58.396Z,137.97
2022-11-22T04:20:21.154Z,152.73
2022-11-22T04:25:25.802Z,145.00
2022-11-22T04:30:48.934Z,146.40
2022-11-22T04:35:52.605Z,137.67
2022-11-22T04:40:55.556Z,132.37
2022-11-22T04:45:58.570Z,145.17
2022-11-22T04:51:20.052Z,144.63
2022-11-22T04:56:22.972Z,146.17
2022-11-22T05:01:25.959Z,135.63
2022-11-22T05:06:29.019Z,129.60
2022-11-22T05:11:32.196Z,138.43
2022-11-22T05:16:35.346Z,133.13
2022-11-22T05:21:38.377Z,143.43
2022-11-22T05:26:42.375Z,138.47
2022-11-22T05:31:50.973Z,144.90
2022-11-22T05:36:54.607Z,142.80
2022-11-22T05:41:57.790Z,144.40
2022-11-22T05:47:00.743Z,145.50
2022-11-22T05:52:04.367Z,136.03
2022-11-22T05:57:07.304Z,141.57
2022-11-22T06:02:10.223Z,139.27
2022-11-22T06:07:13.506Z,143.23
2022-11-22T06:12:16.518Z,131.83
2022-11-22T06:17:19.331Z,140.20
2022-11-22T06:22:22.251Z,133.43
2022-11-22T06:27:25.369Z,126.97
2022-11-22T06:32:28.305Z,146.57
2022-11-22T06:37:31.105Z,139.53
2022-11-22T06:42:33.875Z,129.13
2022-11-22T06:47:36.974Z,138.10
2022-11-22T06:52:39.876Z,139.93
2022-11-22T06:57:42.902Z,163.83
2022-11-22T07:02:46.242Z,142.37
2022-11-22T07:07:49.263Z,161.53
2022-11-22T07:12:53.256Z,167.70
2022-11-22T07:17:56.060Z,152.20
2022-11-22T07:22:58.843Z,140.53
2022-11-22T07:28:01.551Z,136.90
2022-11-22T07:33:04.277Z,142.00
2022-11-22T07:38:07.357Z,157.57
2022-11-22T07:43:10.690Z,157.43
2022-11-22T07:48:15.096Z,154.90
2022-11-22T07:53:18.558Z,167.17
2022-11-22T07:58:21.462Z,174.43
2022-11-22T08:03:28.585Z,171.57
2022-11-22T08:08:33.186Z,174.00
2022-11-22T08:13:36.201Z,168.20
2022-11-22T08:18:39.858Z,169.13
2022-11-22T08:23:43.757Z,169.90
2022-11-22T08:28:46.808Z,176.10
2022-11-22T08:33:53.253Z,169.50
2022-11-22T08:38:56.439Z,366.83
2022-11-22T08:43:59.438Z,173.63
2022-11-22T08:49:04.182Z,169.50
2022-11-22T08:54:07.064Z,165.97
2022-11-22T08:59:10.247Z,168.67
2022-11-22T09:04:13.955Z,173.87
2022-11-22T09:14:40.881Z,161.07
2022-11-22T09:19:44.585Z,152.97
2022-11-22T09:24:47.542Z,158.67
2022-11-22T09:29:52.832Z,156.80
2022-11-22T09:34:58.417Z,169.50
2022-11-22T09:40:01.072Z,151.83
2022-11-22T09:45:26.042Z,153.63
2022-11-22T09:50:31.720Z,179.97
2022-11-22T09:55:44.582Z,138.57
2022-11-22T10:00:51.954Z,135.30
2022-11-22T10:05:58.390Z,129.50
2022-11-22T10:11:01.920Z,128.83
2022-11-22T10:16:14.871Z,142.77
2022-11-22T10:21:19.868Z,124.20
2022-11-22T10:26:26.711Z,142.53
2022-11-22T10:31:41.989Z,127.90
2022-11-22T10:36:53.864Z,120.83
2022-11-22T10:42:16.905Z,120.07
2022-11-22T10:47:38.626Z,115.00
2022-11-22T10:53:02.889Z,111.67
2022-11-22T10:58:33.553Z,117.43
2022-11-22T11:03:44.296Z,99.47
2022-11-22T11:14:59.817Z,91.80
2022-11-22T11:20:11.759Z,99.17
2022-11-22T11:25:35.374Z,98.93
2022-11-22T11:30:48.837Z,107.30
2022-11-22T11:35:55.993Z,103.30
2022-11-22T11:41:11.623Z,100.83
2022-11-22T11:46:23.125Z,111.73
2022-11-22T11:51:38.438Z,113.07
2022-11-22T11:56:57.965Z,115.17
2022-11-22T12:02:30.649Z,119.23
2022-11-22T12:07:34.075Z,129.83
2022-11-22T12:12:36.958Z,145.43
2022-11-22T12:17:50.661Z,126.50
2022-11-22T12:23:18.821Z,125.50
2022-11-22T12:28:24.219Z,131.27
2022-11-22T12:34:03.912Z,135.13
2022-11-22T12:39:10.464Z,129.47
2022-11-22T12:44:17.549Z,133.57
2022-11-22T12:49:35.161Z,119.90
2022-11-22T12:55:04.585Z,125.50
2022-11-22T13:00:15.422Z,127.33
2022-11-22T13:05:24.258Z,116.63
2022-11-22T13:10:49.371Z,127.20
2022-11-22T13:15:53.880Z,121.47
2022-11-22T13:21:30.987Z,136.37
2022-11-22T13:27:05.059Z,117.37
2022-11-22T13:32:14.094Z,124.70
2022-11-22T13:37:17.664Z,133.20
2022-11-22T13:42:28.363Z,137.57
2022-11-22T13:47:37.110Z,116.13
2022-11-22T13:52:54.097Z,117.40
2022-11-22T13:58:25.827Z,112.77
2022-11-22T14:03:41.953Z,118.00
2022-11-22T14:08:48.386Z,115.00
2022-11-22T14:14:02.063Z,136.07
2022-11-22T14:19:23.957Z,110.03
2022-11-22T14:24:50.311Z,114.43
2022-11-22T14:30:08.981Z,107.50
2022-11-22T14:35:22.485Z,105.27
2022-11-22T14:40:33.629Z,103.07
2022-11-22T14:45:48.302Z,113.37
2022-11-22T14:51:05.380Z,121.37
2022-11-22T14:56:23.402Z,110.70
2022-11-22T15:01:42.616Z,106.10
2022-11-22T15:09:17.682Z,114.20
2022-11-22T15:13:15.963Z,108.13
2022-11-22T16:02:22.512Z,103.50
2022-11-22T16:07:30.579Z,84.47
2022-11-22T16:12:39.934Z,86.50
2022-11-22T16:17:53.813Z,88.30
2022-11-22T16:23:09.840Z,94.13
2022-11-22T16:28:34.793Z,85.53
2022-11-22T16:33:37.929Z,83.87
2022-11-22T16:38:41.665Z,81.97
2022-11-22T16:43:44.955Z,78.60
2022-11-22T16:48:47.751Z,68.10
2022-11-22T16:53:51.480Z,89.20
2022-11-22T16:58:56.267Z,68.57
2022-11-22T17:03:59.722Z,70.93
2022-11-22T17:09:03.974Z,68.23
2022-11-22T17:14:07.498Z,65.43
2022-11-22T17:19:30.251Z,62.40
2022-11-22T17:24:34.058Z,67.23
2022-11-22T17:29:52.409Z,68.70
2022-11-22T17:34:55.827Z,69.67
2022-11-22T17:39:59.057Z,69.57
2022-11-22T17:45:01.981Z,61.10
2022-11-22T17:50:05.572Z,67.63
2022-11-22T17:55:14.080Z,70.03
2022-11-22T18:00:17.913Z,67.30
2022-11-22T18:05:21.128Z,68.10
2022-11-22T18:10:23.991Z,69.67
2022-11-22T18:15:26.906Z,67.80
2022-11-22T18:20:29.962Z,72.63
2022-11-22T18:25:32.801Z,75.10
2022-11-22T18:30:35.703Z,75.87
2022-11-22T18:35:41.320Z,71.13
2022-11-22T18:40:47.405Z,76.43
2022-11-22T18:45:50.255Z,71.10
2022-11-22T18:50:53.017Z,65.47
2022-11-22T18:55:56.011Z,69.03
2022-11-22T19:01:00.870Z,67.27
2022-11-22T19:06:24.990Z,72.53
2022-11-22T19:11:29.478Z,82.90
2022-11-22T19:16:32.425Z,89.43
2022-11-22T19:21:35.303Z,71.97
2022-11-22T19:26:38.224Z,68.07
2022-11-22T19:31:41.219Z,82.43
2022-11-22T19:36:44.256Z,87.00
2022-11-22T19:41:47.525Z,92.13
2022-11-22T19:46:50.531Z,98.17
2022-11-22T19:51:53.745Z,83.60
2022-11-22T19:56:56.609Z,76.77
2022-11-22T20:01:59.549Z,84.67
2022-11-22T20:07:03.833Z,96.47
2022-11-22T20:12:06.860Z,101.00
2022-11-22T20:17:09.721Z,82.30
2022-11-22T20:22:12.836Z,82.80
2022-11-22T20:27:21.647Z,77.90
2022-11-22T20:32:29.036Z,71.27
2022-11-22T20:37:32.077Z,67.97
2022-11-22T20:42:35.464Z,67.70
2022-11-22T20:47:38.186Z,70.33
2022-11-22T20:52:41.196Z,66.80
2022-11-22T20:57:44.205Z,67.60
2022-11-22T21:02:47.097Z,68.83
2022-11-22T21:07:50.212Z,61.80
2022-11-22T21:12:53.607Z,61.00
2022-11-22T21:18:23.549Z,63.67
2022-11-22T21:23:21.578Z,64.47
2022-11-22T21:28:24.587Z,68.53
2022-11-22T21:33:27.795Z,70.33
2022-11-22T21:38:31.427Z,67.73
2022-11-22T21:43:34.837Z,65.33
2022-11-22T21:48:37.754Z,67.07
2022-11-22T21:53:41.070Z,70.33
2022-11-22T21:58:44.262Z,74.20
2022-11-22T22:03:47.571Z,69.13
2022-11-22T22:08:50.626Z,72.80
2022-11-22T22:13:58.362Z,69.30
2022-11-22T22:19:03.429Z,68.30
2022-11-22T22:24:11.696Z,73.27
2022-11-22T22:29:14.532Z,69.63
2022-11-22T22:34:18.484Z,73.33
2022-11-22T22:39:21.755Z,74.90
2022-11-22T22:44:24.829Z,76.00
2022-11-22T22:49:29.200Z,59.47
2022-11-22T22:54:32.748Z,61.97
2022-11-22T22:59:36.135Z,63.70
2022-11-22T23:04:41.030Z,63.97
2022-11-22T23:09:44.136Z,60.37
2022-11-22T23:14:47.216Z,61.57
2022-11-22T23:19:50.315Z,66.70
2022-11-22T23:24:53.339Z,62.17
2022-11-22T23:29:56.410Z,61.97
2022-11-22T23:34:59.259Z,64.00
2022-11-22T23:40:02.289Z,58.33
2022-11-22T23:45:05.669Z,62.60
2022-11-22T23:50:09.006Z,63.67
2022-11-22T23:55:11.981Z,63.93
